Time;durP1;ratioP1;P1;durP2;ratioP2;P2;SDS_P1;SDS_P2;PMS_P1;PMS_P2;Temp;Humidity;BMP_temperature;BMP_pressure;BME280_temperature;BME280_humidity;BME280_pressure;Samples;Min_cycle;Max_cycle;Signal;HPM_P1;HPM_P2
2023/06/02 00:01:21;;;;;;;0.63;0.43;;;10.30;1.00;;;;;;4842667;29;20453;-93
2023/06/02 00:03:48;;;;;;;0.43;0.40;;;10.30;1.00;;;;;;4830636;29;20136;-93
2023/06/02 00:06:14;;;;;;;0.45;0.20;;;10.30;1.00;;;;;;4845084;29;20132;-93
2023/06/02 00:08:41;;;;;;;0.50;0.30;;;10.30;1.00;;;;;;4839583;29;20138;-92
2023/06/02 00:11:11;;;;;;;0.10;0.10;;;10.30;1.00;;;;;;4843134;29;20064;-93
2023/06/02 00:13:38;;;;;;;0.95;0.40;;;10.30;1.00;;;;;;4842939;29;20069;-93
2023/06/02 00:16:04;;;;;;;;;;;10.30;1.00;;;;;;4841943;29;20129;-94
2023/06/02 00:18:36;;;;;;;0.55;0.47;;;10.30;1.00;;;;;;4841226;29;20368;-94
2023/06/02 00:21:02;;;;;;;0.00;0.00;;;10.60;1.00;;;;;;4825006;29;20049;-93
2023/06/02 00:23:29;;;;;;;0.68;0.20;;;10.30;1.00;;;;;;4826088;29;20092;-93
2023/06/02 00:25:58;;;;;;;0.30;0.30;;;10.30;1.00;;;;;;4811563;29;20407;-91
2023/06/02 00:28:24;;;;;;;0.43;0.25;;;10.30;1.00;;;;;;4810308;29;20118;-94
2023/06/02 00:30:51;;;;;;;0.20;0.20;;;10.30;1.00;;;;;;4816371;29;20050;-94
2023/06/02 00:33:17;;;;;;;0.10;0.10;;;10.30;1.00;;;;;;4826165;29;20045;-94
2023/06/02 00:35:43;;;;;;;0.30;0.10;;;10.30;1.00;;;;;;4827198;29;20041;-95
2023/06/02 00:38:09;;;;;;;0.20;0.20;;;10.30;1.00;;;;;;4842978;29;20405;-95
2023/06/02 00:40:35;;;;;;;1.13;0.10;;;10.30;1.00;;;;;;4826232;29;20461;-95
2023/06/02 00:43:01;;;;;;;0.32;0.20;;;10.30;1.00;;;;;;4824706;29;20057;-94
2023/06/02 00:45:27;;;;;;;0.10;0.10;;;10.20;1.00;;;;;;4841309;29;20065;-94
2023/06/02 00:47:53;;;;;;;0.25;0.25;;;10.20;1.00;;;;;;4861238;29;20061;-94
2023/06/02 00:50:19;;;;;;;0.00;0.00;;;10.20;1.00;;;;;;4860554;29;20046;-94
2023/06/02 00:52:46;;;;;;;0.65;0.20;;;10.20;1.00;;;;;;4845000;29;20050;-94
2023/06/02 00:55:12;;;;;;;1.27;0.40;;;10.20;1.00;;;;;;4829564;29;20061;-93
2023/06/02 00:57:40;;;;;;;0.43;0.30;;;10.20;1.00;;;;;;4842936;29;20500;-94
2023/06/02 01:00:09;;;;;;;1.98;0.40;;;10.20;1.00;;;;;;4844660;29;20061;-93
2023/06/02 01:02:35;;;;;;;0.00;0.00;;;10.20;1.00;;;;;;4842678;29;20049;-93
2023/06/02 01:05:10;;;;;;;0.98;0.25;;;10.20;1.00;;;;;;4827676;29;20057;-93
2023/06/02 01:07:39;;;;;;;0.43;0.10;;;10.20;1.00;;;;;;4842962;29;20058;-93
2023/06/02 01:10:07;;;;;;;0.08;0.08;;;10.10;1.00;;;;;;4860595;29;20052;-93
2023/06/02 01:12:33;;;;;;;0.10;0.10;;;10.10;1.00;;;;;;4843727;29;20052;-93
2023/06/02 01:14:59;;;;;;;0.40;0.28;;;10.20;1.00;;;;;;4844407;29;20046;-93
2023/06/02 01:17:35;;;;;;;0.10;0.10;;;10.20;1.00;;;;;;4828332;29;20400;-89
2023/06/02 01:20:05;;;;;;;0.17;0.10;;;10.20;1.00;;;;;;4844310;29;20117;-92
2023/06/02 01:22:38;;;;;;;0.10;0.08;;;10.20;1.00;;;;;;4843510;29;20045;-92
2023/06/02 01:25:17;;;;;;;0.40;0.25;;;10.20;1.00;;;;;;4860537;29;20088;-95
2023/06/02 01:27:43;;;;;;;0.35;0.20;;;10.10;1.00;;;;;;4828986;29;20065;-94
2023/06/02 01:30:09;;;;;;;0.30;0.30;;;10.10;1.00;;;;;;4842271;29;20519;-94
2023/06/02 01:32:49;;;;;;;0.13;0.13;;;10.10;1.00;;;;;;4828694;29;20055;-94
2023/06/02 01:35:18;;;;;;;0.10;0.10;;;10.10;1.00;;;;;;4843275;29;20058;-93
2023/06/02 01:37:49;;;;;;;0.30;0.20;;;10.10;1.00;;;;;;4843545;29;20045;-94
2023/06/02 01:40:16;;;;;;;0.10;0.08;;;10.10;1.00;;;;;;4844320;29;20101;-94
2023/06/02 01:42:42;;;;;;;1.08;0.20;;;10.10;1.00;;;;;;4860289;29;20151;-93
2023/06/02 01:45:08;;;;;;;0.20;0.20;;;10.10;1.00;;;;;;4844820;29;20069;-94
2023/06/02 01:47:35;;;;;;;0.00;0.00;;;10.10;1.00;;;;;;4831928;29;20073;-93
2023/06/02 01:50:00;;;;;;;0.30;0.30;;;10.10;1.00;;;;;;4847335;29;20054;-93
2023/06/02 01:52:26;;;;;;;0.17;0.10;;;10.10;1.00;;;;;;4863883;29;20057;-92
2023/06/02 01:54:52;;;;;;;0.20;0.20;;;10.10;1.00;;;;;;4847446;29;20057;-94
2023/06/02 01:57:17;;;;;;;0.30;0.30;;;10.10;1.00;;;;;;4863715;29;20046;-94
2023/06/02 01:59:43;;;;;;;0.30;0.30;;;10.10;1.00;;;;;;4846165;29;20132;-94
2023/06/02 02:02:09;;;;;;;0.10;0.10;;;10.10;1.00;;;;;;4845744;29;20057;-92
2023/06/02 02:04:35;;;;;;;0.30;0.30;;;10.10;1.00;;;;;;4846586;29;20053;-93
2023/06/02 02:07:01;;;;;;;1.40;0.23;;;10.10;1.00;;;;;;4863640;29;20076;-93
2023/06/02 02:09:27;;;;;;;0.20;0.20;;;10.00;1.00;;;;;;4847228;29;20052;-91
2023/06/02 02:11:53;;;;;;;0.00;0.00;;;10.00;1.00;;;;;;4847363;29;20057;-93
2023/06/02 02:14:19;;;;;;;0.95;0.17;;;10.00;1.00;;;;;;4846839;29;20060;-93
2023/06/02 02:16:49;;;;;;;1.10;0.40;;;10.00;1.00;;;;;;4831010;29;20053;-92
2023/06/02 02:19:16;;;;;;;0.20;0.20;;;10.00;1.00;;;;;;4863594;29;20053;-93
2023/06/02 02:21:42;;;;;;;0.57;0.13;;;10.00;1.00;;;;;;4863170;29;20049;-94
2023/06/02 02:24:08;;;;;;;0.70;0.15;;;10.00;1.00;;;;;;4879090;29;20082;-90
2023/06/02 02:26:35;;;;;;;1.00;0.20;;;10.10;1.00;;;;;;4863493;29;20049;-90
2023/06/02 02:29:01;;;;;;;0.20;0.20;;;10.00;1.00;;;;;;4844961;29;20085;-93
2023/06/02 02:31:27;;;;;;;0.63;0.63;;;10.00;1.00;;;;;;4861781;29;20088;-93
2023/06/02 02:33:53;;;;;;;0.10;0.10;;;10.00;1.00;;;;;;4830736;29;20053;-93
2023/06/02 02:36:19;;;;;;;0.70;0.22;;;10.00;1.00;;;;;;4845593;29;20045;-93
2023/06/02 02:38:45;;;;;;;0.10;0.10;;;10.00;1.00;;;;;;4831228;29;20064;-95
2023/06/02 02:41:11;;;;;;;0.10;0.10;;;10.00;1.00;;;;;;4831342;29;20057;-93
2023/06/02 02:43:37;;;;;;;0.20;0.20;;;10.00;1.00;;;;;;4846280;29;20049;-93
2023/06/02 02:46:03;;;;;;;1.03;1.03;;;10.00;1.00;;;;;;4830491;29;20072;-92
2023/06/02 02:48:29;;;;;;;;;;;10.00;1.00;;;;;;4846727;29;20420;-93
2023/06/02 02:50:55;;;;;;;0.10;0.10;;;10.00;1.00;;;;;;4844775;29;19924;-93
2023/06/02 02:53:21;;;;;;;1.50;0.20;;;10.00;1.00;;;;;;4846580;29;20519;-93
2023/06/02 02:55:49;;;;;;;0.17;0.17;;;10.00;1.00;;;;;;4845000;29;20072;-92
2023/06/02 02:58:18;;;;;;;0.20;0.20;;;10.00;1.00;;;;;;4861605;29;20412;-93
2023/06/02 03:00:45;;;;;;;0.28;0.20;;;10.00;1.00;;;;;;4829197;29;20390;-91
2023/06/02 03:03:11;;;;;;;0.17;0.17;;;10.00;1.00;;;;;;4827763;29;20046;-93
2023/06/02 03:05:37;;;;;;;0.17;0.10;;;10.00;1.00;;;;;;4827575;29;20050;-93
2023/06/02 03:08:05;;;;;;;0.10;0.10;;;10.00;1.00;;;;;;4836330;29;20061;-92
2023/06/02 03:10:30;;;;;;;0.93;0.10;;;10.00;1.00;;;;;;4845660;29;20045;-92
2023/06/02 03:12:56;;;;;;;0.10;0.10;;;10.10;1.00;;;;;;4845856;29;20046;-93
2023/06/02 03:15:22;;;;;;;0.23;0.20;;;10.10;1.00;;;;;;4862220;29;20493;-93
2023/06/02 03:17:50;;;;;;;0.50;0.20;;;10.00;1.00;;;;;;4845105;29;20091;-93
2023/06/02 03:20:17;;;;;;;1.25;0.38;;;10.00;1.00;;;;;;4846067;29;20110;-93
2023/06/02 03:22:44;;;;;;;0.43;0.10;;;10.10;1.00;;;;;;4862033;29;20046;-92
2023/06/02 03:25:10;;;;;;;;;;;10.10;1.00;;;;;;4861702;29;20465;-91
2023/06/02 03:27:35;;;;;;;0.10;0.10;;;10.10;1.00;;;;;;4846246;29;19924;-94
2023/06/02 03:30:02;;;;;;;0.35;0.35;;;9.60;1.00;;;;;;4861296;29;20053;-91
2023/06/02 03:32:28;;;;;;;;;;;10.10;1.00;;;;;;4846105;29;20065;-94
2023/06/02 03:34:53;;;;;;;2.35;0.40;;;10.10;1.00;;;;;;4845380;29;20427;-93
2023/06/02 03:37:19;;;;;;;0.30;0.30;;;10.10;1.00;;;;;;4845332;29;20037;-93
2023/06/02 03:39:45;;;;;;;3.43;1.13;;;10.10;1.00;;;;;;4844302;29;20615;-92
2023/06/02 03:42:10;;;;;;;1.77;0.40;;;10.10;1.00;;;;;;4845635;29;20106;-92
2023/06/02 03:44:36;;;;;;;0.37;0.10;;;10.10;1.00;;;;;;4861830;29;20068;-93
2023/06/02 03:47:02;;;;;;;0.73;0.73;;;10.10;1.00;;;;;;4845486;29;20484;-94
2023/06/02 03:49:29;;;;;;;0.10;0.10;;;10.10;1.00;;;;;;4861552;29;20042;-93
2023/06/02 03:51:55;;;;;;;0.25;0.25;;;10.10;1.00;;;;;;4829553;29;20128;-93
2023/06/02 03:54:21;;;;;;;0.43;0.20;;;10.10;1.00;;;;;;4845437;29;20136;-93
2023/06/02 03:56:46;;;;;;;0.33;0.20;;;10.10;1.00;;;;;;4844810;29;20076;-93
2023/06/02 03:59:12;;;;;;;0.20;0.20;;;10.10;1.00;;;;;;4844465;29;20683;-89
2023/06/02 04:01:41;;;;;;;0.40;0.40;;;10.20;1.00;;;;;;4859713;29;20057;-93
2023/06/02 04:04:11;;;;;;;0.32;0.10;;;10.20;1.00;;;;;;4861836;29;20133;-94
2023/06/02 04:06:38;;;;;;;0.65;0.50;;;10.20;1.00;;;;;;4844841;29;20049;-93
2023/06/02 04:09:04;;;;;;;0.70;0.35;;;10.20;1.00;;;;;;4861286;29;20481;-93
2023/06/02 04:11:30;;;;;;;0.40;0.20;;;10.20;1.00;;;;;;4844907;29;20053;-94
2023/06/02 04:13:55;;;;;;;0.10;0.10;;;10.20;1.00;;;;;;4844884;29;20053;-94
2023/06/02 04:16:21;;;;;;;0.30;0.30;;;10.30;1.00;;;;;;4861715;29;20053;-94
2023/06/02 04:18:47;;;;;;;0.10;0.10;;;10.30;1.00;;;;;;4814729;29;20393;-93
2023/06/02 04:21:12;;;;;;;0.20;0.20;;;10.30;1.00;;;;;;4844126;29;20045;-92
2023/06/02 04:23:38;;;;;;;0.93;0.20;;;10.30;1.00;;;;;;4861417;29;20057;-93
2023/06/02 04:26:04;;;;;;;0.43;0.23;;;10.30;1.00;;;;;;4860693;29;20049;-92
2023/06/02 04:28:30;;;;;;;0.10;0.10;;;10.30;1.00;;;;;;4830095;29;20069;-94
2023/06/02 04:30:58;;;;;;;0.75;0.32;;;10.30;1.00;;;;;;4858094;29;20058;-92
2023/06/02 04:33:24;;;;;;;0.15;0.15;;;10.40;1.00;;;;;;4842790;29;20632;-93
2023/06/02 04:35:50;;;;;;;0.63;0.40;;;10.40;1.00;;;;;;4839651;29;20109;-93
2023/06/02 04:38:16;;;;;;;0.73;0.30;;;10.40;1.00;;;;;;4861179;29;20050;-92
2023/06/02 04:40:42;;;;;;;0.10;0.10;;;10.50;1.00;;;;;;4844706;29;20049;-94
2023/06/02 04:43:08;;;;;;;0.95;0.32;;;10.40;1.00;;;;;;4860500;29;20056;-92
2023/06/02 04:45:34;;;;;;;0.40;0.40;;;10.50;1.00;;;;;;4843223;29;20097;-95
2023/06/02 04:48:01;;;;;;;0.08;0.03;;;10.50;1.00;;;;;;4843010;29;20054;-94
2023/06/02 04:50:27;;;;;;;0.40;0.40;;;10.50;1.00;;;;;;4861494;29;20054;-94
2023/06/02 04:52:54;;;;;;;0.17;0.17;;;10.60;1.00;;;;;;4844787;29;20061;-94
2023/06/02 04:55:19;;;;;;;0.10;0.10;;;10.60;1.00;;;;;;4845039;29;20060;-94
2023/06/02 04:57:46;;;;;;;0.30;0.30;;;10.60;1.00;;;;;;4845129;29;20050;-94
2023/06/02 05:00:12;;;;;;;;;;;10.60;1.00;;;;;;4843283;29;20049;-95
2023/06/02 05:02:38;;;;;;;0.47;0.10;;;10.70;1.00;;;;;;4844542;29;19996;-93
2023/06/02 05:05:05;;;;;;;0.27;0.27;;;10.70;1.00;;;;;;4843254;29;20045;-94
2023/06/02 05:07:31;;;;;;;0.95;0.22;;;10.70;1.00;;;;;;4844877;29;20057;-93
2023/06/02 05:09:57;;;;;;;;;;;10.70;1.00;;;;;;4844454;29;20061;-92
2023/06/02 05:12:25;;;;;;;0.90;0.40;;;10.80;1.00;;;;;;4829328;29;19931;-93
2023/06/02 05:14:51;;;;;;;0.30;0.20;;;10.80;1.00;;;;;;4859273;29;20049;-92
2023/06/02 05:17:27;;;;;;;0.20;0.20;;;10.80;1.00;;;;;;4860889;29;20109;-93
2023/06/02 05:19:53;;;;;;;0.52;0.30;;;10.80;1.00;;;;;;4842113;29;20540;-93
2023/06/02 05:22:20;;;;;;;0.70;0.22;;;10.80;1.00;;;;;;4844250;29;20105;-93
2023/06/02 05:24:46;;;;;;;;;;;10.80;1.00;;;;;;4844325;29;20060;-94
2023/06/02 05:27:12;;;;;;;0.75;0.55;;;10.90;1.00;;;;;;4843572;29;19928;-94
2023/06/02 05:29:37;;;;;;;0.10;0.10;;;10.90;1.00;;;;;;4843498;29;20481;-93
2023/06/02 05:32:05;;;;;;;0.20;0.10;;;11.00;1.00;;;;;;4843851;29;20515;-93
2023/06/02 05:34:32;;;;;;;0.60;0.43;;;11.00;1.00;;;;;;4843421;29;20053;-93
2023/06/02 05:36:58;;;;;;;0.17;0.17;;;11.00;1.00;;;;;;4843316;29;20087;-91
2023/06/02 05:39:24;;;;;;;0.63;0.38;;;11.00;1.00;;;;;;4843671;29;20060;-93
2023/06/02 05:41:50;;;;;;;0.20;0.10;;;11.00;1.00;;;;;;4842460;29;20045;-94
2023/06/02 05:44:15;;;;;;;0.60;0.60;;;11.10;1.00;;;;;;4841632;29;20054;-93
2023/06/02 05:46:41;;;;;;;0.30;0.20;;;11.10;1.00;;;;;;4852267;29;20083;-94
2023/06/02 05:49:07;;;;;;;0.03;0.03;;;11.10;1.00;;;;;;4858924;29;20841;-95
2023/06/02 05:51:32;;;;;;;0.00;0.00;;;11.10;1.00;;;;;;4844048;29;20390;-93
2023/06/02 05:54:00;;;;;;;0.13;0.13;;;11.20;1.00;;;;;;4859769;29;20057;-92
2023/06/02 05:56:26;;;;;;;2.08;0.20;;;11.20;1.00;;;;;;4827665;29;20557;-94
2023/06/02 05:58:51;;;;;;;1.93;0.20;;;11.30;1.00;;;;;;4844222;29;20140;-93
2023/06/02 06:01:17;;;;;;;0.20;0.20;;;11.30;1.00;;;;;;4859769;29;20838;-94
2023/06/02 06:03:43;;;;;;;0.37;0.20;;;11.30;1.00;;;;;;4843871;29;20049;-93
2023/06/02 06:06:08;;;;;;;0.40;0.40;;;11.40;1.00;;;;;;4843277;29;20511;-92
2023/06/02 06:08:34;;;;;;;0.27;0.27;;;11.40;1.00;;;;;;4860136;29;20085;-93
2023/06/02 06:11:00;;;;;;;0.75;0.30;;;11.40;1.00;;;;;;4827431;29;20053;-93
2023/06/02 06:13:26;;;;;;;0.53;0.13;;;11.50;1.00;;;;;;4844646;29;20493;-87
2023/06/02 06:15:51;;;;;;;0.43;0.20;;;11.50;1.00;;;;;;4863039;29;20068;-86
2023/06/02 06:18:19;;;;;;;1.13;1.00;;;11.60;1.00;;;;;;4859495;29;20168;-85
2023/06/02 06:20:45;;;;;;;0.30;0.10;;;11.60;1.00;;;;;;4857060;29;20124;-87
2023/06/02 06:23:14;;;;;;;0.28;0.20;;;11.70;1.00;;;;;;4841375;29;20058;-86
2023/06/02 06:25:40;;;;;;;0.55;0.55;;;11.70;1.00;;;;;;4854748;29;20504;-87
2023/06/02 06:28:05;;;;;;;0.80;0.30;;;11.80;1.00;;;;;;4842641;29;20104;-88
2023/06/02 06:30:31;;;;;;;0.33;0.20;;;11.80;1.00;;;;;;4829055;29;20140;-87
2023/06/02 06:32:57;;;;;;;0.10;0.10;;;11.80;1.00;;;;;;4838457;29;20507;-87
2023/06/02 06:35:23;;;;;;;0.20;0.20;;;11.90;1.00;;;;;;4842853;29;20488;-86
2023/06/02 06:37:49;;;;;;;0.37;0.37;;;11.90;1.00;;;;;;4846126;29;20108;-86
2023/06/02 06:40:15;;;;;;;0.40;0.40;;;12.00;1.00;;;;;;4862223;29;20054;-86
2023/06/02 06:42:40;;;;;;;0.43;0.30;;;12.00;1.00;;;;;;4845403;29;20424;-80
2023/06/02 06:45:07;;;;;;;0.20;0.20;;;12.10;1.00;;;;;;4829632;29;20058;-81
2023/06/02 06:47:32;;;;;;;0.20;0.20;;;12.10;1.00;;;;;;4850830;29;20146;-86
2023/06/02 06:49:58;;;;;;;2.33;0.27;;;12.20;1.00;;;;;;4861641;29;20128;-86
2023/06/02 06:52:24;;;;;;;0.20;0.20;;;12.30;1.00;;;;;;4846133;29;20054;-91
2023/06/02 06:54:50;;;;;;;0.75;0.43;;;12.40;1.00;;;;;;4845280;29;20056;-89
2023/06/02 06:57:16;;;;;;;0.40;0.40;;;12.50;1.00;;;;;;4846319;29;20049;-88
2023/06/02 06:59:42;;;;;;;0.55;0.35;;;12.60;1.00;;;;;;4832230;29;20072;-91
2023/06/02 07:02:08;;;;;;;0.30;0.22;;;12.60;1.00;;;;;;4863686;29;20046;-92
2023/06/02 07:04:34;;;;;;;0.40;0.30;;;12.70;1.00;;;;;;4847057;29;20049;-89
2023/06/02 07:07:00;;;;;;;0.20;0.20;;;12.70;1.00;;;;;;4861130;29;20352;-91
2023/06/02 07:09:25;;;;;;;0.10;0.10;;;12.80;1.00;;;;;;4845892;29;20057;-89
2023/06/02 07:11:51;;;;;;;0.80;0.57;;;12.90;1.00;;;;;;4847163;29;20350;-90
2023/06/02 07:14:17;;;;;;;0.40;0.38;;;12.90;1.00;;;;;;4844118;29;20051;-88
2023/06/02 07:16:46;;;;;;;1.05;0.40;;;13.10;1.00;;;;;;4862162;29;20046;-87
2023/06/02 07:19:12;;;;;;;0.40;0.40;;;13.20;1.00;;;;;;4830473;29;20140;-89
2023/06/02 07:21:38;;;;;;;0.43;0.15;;;13.20;1.00;;;;;;4845598;29;20141;-88
2023/06/02 07:24:03;;;;;;;0.87;0.40;;;13.30;1.00;;;;;;4861904;29;20060;-88
2023/06/02 07:26:29;;;;;;;0.57;0.33;;;13.50;1.00;;;;;;4830894;29;20742;-88
2023/06/02 07:28:56;;;;;;;0.47;0.47;;;13.70;1.00;;;;;;4846044;29;20385;-89
2023/06/02 07:31:22;;;;;;;0.50;0.25;;;13.80;1.00;;;;;;4860490;29;20337;-88
2023/06/02 07:33:48;;;;;;;0.25;0.25;;;14.00;1.00;;;;;;4846137;29;20056;-90
2023/06/02 07:36:14;;;;;;;0.28;0.28;;;14.70;1.00;;;;;;4860966;29;20610;-88
2023/06/02 07:38:40;;;;;;;0.20;0.20;;;15.50;1.00;;;;;;4847755;29;20057;-89
2023/06/02 07:41:06;;;;;;;0.20;0.20;;;16.20;1.00;;;;;;4843637;29;20041;-89
2023/06/02 07:43:32;;;;;;;1.65;0.30;;;16.90;1.00;;;;;;4861041;29;20065;-88
2023/06/02 07:45:57;;;;;;;1.30;0.40;;;17.20;1.00;;;;;;4863226;29;20057;-87
2023/06/02 07:48:23;;;;;;;0.30;0.30;;;17.10;1.00;;;;;;4862446;29;20409;-87
2023/06/02 07:50:49;;;;;;;0.20;0.20;;;16.80;1.00;;;;;;4844436;29;20057;-87
2023/06/02 07:53:15;;;;;;;0.32;0.13;;;16.90;1.00;;;;;;4865407;29;20049;-87
2023/06/02 07:55:41;;;;;;;0.43;0.35;;;16.90;1.00;;;;;;4829340;29;20560;-87
2023/06/02 07:58:08;;;;;;;0.90;0.50;;;17.20;1.00;;;;;;4842659;29;20112;-87
2023/06/02 08:00:34;;;;;;;0.63;0.57;;;17.50;1.00;;;;;;4842483;29;20065;-87
2023/06/02 08:03:00;;;;;;;0.32;0.32;;;17.80;1.00;;;;;;4826845;29;20500;-86
2023/06/02 08:05:26;;;;;;;0.90;0.50;;;18.00;1.00;;;;;;4842656;29;20060;-87
2023/06/02 08:07:51;;;;;;;0.30;0.25;;;17.90;1.00;;;;;;4840508;29;20053;-86
2023/06/02 08:10:17;;;;;;;0.20;0.20;;;17.80;1.00;;;;;;4841043;29;20049;-86
2023/06/02 08:12:43;;;;;;;0.30;0.30;;;18.00;1.00;;;;;;4858244;29;20128;-85
2023/06/02 08:15:09;;;;;;;0.40;0.40;;;18.30;1.00;;;;;;4841591;29;20049;-83
2023/06/02 08:17:35;;;;;;;1.13;0.50;;;18.50;99.90;;;;;;4842597;29;20568;-86
2023/06/02 08:20:03;;;;;;;2.17;0.52;;;18.30;1.00;;;;;;4859381;29;20061;-87
2023/06/02 08:22:30;;;;;;;0.20;0.20;;;18.00;1.00;;;;;;4827046;29;20057;-83
2023/06/02 08:24:57;;;;;;;0.30;0.30;;;17.80;1.00;;;;;;4859364;29;20173;-85
2023/06/02 08:27:24;;;;;;;0.28;0.20;;;17.70;1.00;;;;;;4858153;29;20052;-85
2023/06/02 08:29:51;;;;;;;0.57;0.57;;;17.50;99.90;;;;;;4858482;29;20046;-86
2023/06/02 08:32:24;;;;;;;0.30;0.30;;;17.60;99.90;;;;;;4842927;29;20053;-84
2023/06/02 08:34:50;;;;;;;0.20;0.20;;;17.90;1.00;;;;;;4859531;29;20493;-90
2023/06/02 08:37:21;;;;;;;0.40;0.30;;;18.20;99.90;;;;;;4826710;29;20037;-87
2023/06/02 08:39:49;;;;;;;0.20;0.20;;;18.70;99.90;;;;;;4844114;29;20045;-86
2023/06/02 08:42:16;;;;;;;0.20;0.20;;;18.80;99.90;;;;;;4844817;29;20049;-87
2023/06/02 08:44:43;;;;;;;0.85;0.85;;;18.90;99.90;;;;;;4842993;29;20125;-87
2023/06/02 08:47:13;;;;;;;0.30;0.30;;;19.00;99.90;;;;;;4828534;29;20049;-87
2023/06/02 08:49:43;;;;;;;0.45;0.20;;;19.20;99.90;;;;;;4843256;29;20117;-87
2023/06/02 08:52:18;;;;;;;0.30;0.22;;;19.10;99.90;;;;;;4844607;29;20092;-87
2023/06/02 08:54:44;;;;;;;1.08;0.20;;;19.10;99.90;;;;;;4843704;29;20064;-86
2023/06/02 08:57:16;;;;;;;0.10;0.10;;;19.30;99.90;;;;;;4844427;29;20080;-87
2023/06/02 08:59:43;;;;;;;0.20;0.17;;;19.50;99.90;;;;;;4843421;29;20336;-86
2023/06/02 09:02:09;;;;;;;0.10;0.10;;;19.90;99.90;;;;;;4844300;29;20053;-89
2023/06/02 09:04:35;;;;;;;0.40;0.30;;;20.10;1.00;;;;;;4843855;29;20101;-88
2023/06/02 09:07:27;;;;;;;0.40;0.40;;;20.10;1.00;;;;;;4844175;29;20136;-89
2023/06/02 09:09:54;;;;;;;0.50;0.50;;;20.00;1.00;;;;;;4841207;29;20088;-95
2023/06/02 09:12:20;;;;;;;0.10;0.10;;;20.30;99.50;;;;;;4842354;29;20077;-88
2023/06/02 09:15:08;;;;;;;0.10;0.10;;;20.40;99.90;;;;;;4844190;29;20060;-90
2023/06/02 09:17:34;;;;;;;0.28;0.25;;;20.40;1.00;;;;;;4842036;29;20050;-88
2023/06/02 09:20:09;;;;;;;0.57;0.50;;;20.60;1.00;;;;;;4842736;29;20105;-88
2023/06/02 09:22:35;;;;;;;0.20;0.20;;;20.70;99.90;;;;;;4860927;29;20060;-93
2023/06/02 09:25:01;;;;;;;0.70;0.40;;;20.90;99.90;;;;;;4830527;29;20053;-92
2023/06/02 09:27:28;;;;;;;0.57;0.25;;;20.90;99.90;;;;;;4843404;29;20066;-91
2023/06/02 09:30:00;;;;;;;0.30;0.30;;;21.00;99.90;;;;;;4828266;29;20058;-92
2023/06/02 09:32:26;;;;;;;1.58;0.17;;;20.90;99.90;;;;;;4842257;29;20424;-93
2023/06/02 09:34:52;;;;;;;0.70;0.43;;;20.80;1.00;;;;;;4842644;29;20132;-95
2023/06/02 09:37:19;;;;;;;1.25;1.13;;;20.80;99.90;;;;;;4843853;29;20205;-85
2023/06/02 09:39:49;;;;;;;0.17;0.17;;;20.70;1.00;;;;;;4856830;29;20053;-86
2023/06/02 09:42:16;;;;;;;0.38;0.38;;;20.50;99.90;;;;;;4841541;29;20049;-87
2023/06/02 09:45:08;;;;;;;0.40;0.40;;;20.50;99.90;;;;;;4838593;29;20057;-87
2023/06/02 09:47:39;;;;;;;0.30;0.13;;;20.50;99.90;;;;;;4829705;29;20053;-86
2023/06/02 09:50:05;;;;;;;0.90;0.20;;;20.10;99.90;;;;;;4858585;29;20117;-87
2023/06/02 09:52:30;;;;;;;;;;;19.90;1.00;;;;;;4858112;29;20045;-88
2023/06/02 09:54:57;;;;;;;0.35;0.10;;;19.80;99.90;;;;;;4856695;29;20487;-88
2023/06/02 09:57:24;;;;;;;0.40;0.40;;;19.80;1.00;;;;;;4857847;29;20046;-87
2023/06/02 09:59:50;;;;;;;0.10;0.10;;;19.70;1.00;;;;;;4856751;29;20133;-87
2023/06/02 10:02:15;;;;;;;0.13;0.13;;;19.50;1.00;;;;;;4843520;29;20190;-86
2023/06/02 10:04:41;;;;;;;0.30;0.30;;;19.60;99.90;;;;;;4845110;29;20049;-85
2023/06/02 10:07:39;;;;;;;0.10;0.10;;;19.70;15.80;;;;;;4844599;29;20080;-90
2023/06/02 10:10:19;;;;;;;0.57;0.25;;;19.60;1.00;;;;;;4805489;29;20065;-89
2023/06/02 10:13:26;;;;;;;0.05;0.05;;;19.40;99.90;;;;;;4832154;29;20083;-92
2023/06/02 10:16:05;;;;;;;0.10;0.10;;;19.60;1.00;;;;;;4824400;29;20065;-91
2023/06/02 10:18:57;;;;;;;0.20;0.20;;;19.90;99.90;;;;;;4845394;29;20511;-86
2023/06/02 10:21:54;;;;;;;0.13;0.13;;;20.30;1.00;;;;;;4844457;29;20056;-90
2023/06/02 10:24:50;;;;;;;0.10;0.10;;;20.30;1.00;;;;;;4844004;29;20057;-91
2023/06/02 10:27:25;;;;;;;0.25;0.25;;;20.00;1.00;;;;;;4849211;29;20046;-89
2023/06/02 10:29:53;;;;;;;0.10;0.10;;;20.00;1.00;;;;;;4845517;29;20590;-91
2023/06/02 10:32:27;;;;;;;0.05;0.05;;;20.20;99.90;;;;;;4861504;29;20125;-91
2023/06/02 10:34:56;;;;;;;0.15;0.13;;;20.40;1.00;;;;;;4844570;29;20685;-88
2023/06/02 10:37:23;;;;;;;0.20;0.20;;;20.50;99.90;;;;;;4860545;29;20048;-87
2023/06/02 10:39:54;;;;;;;0.10;0.00;;;20.60;16.50;;;;;;4862199;29;20057;-88
2023/06/02 10:42:22;;;;;;;0.43;0.20;;;20.80;99.90;;;;;;4846335;29;20061;-87
2023/06/02 10:44:48;;;;;;;0.00;0.00;;;20.80;99.90;;;;;;4843761;29;20124;-83
2023/06/02 10:47:20;;;;;;;0.22;0.20;;;20.70;36.20;;;;;;4860617;29;20128;-84
2023/06/02 10:49:58;;;;;;;0.52;0.30;;;20.90;99.90;;;;;;4845607;29;20113;-84
2023/06/02 10:52:24;;;;;;;0.10;0.10;;;21.00;99.90;;;;;;4846313;29;20105;-84
2023/06/02 10:55:14;;;;;;;0.10;0.10;;;21.10;98.20;;;;;;4845702;29;20139;-84
2023/06/02 10:57:56;;;;;;;0.15;0.10;;;20.80;1.00;;;;;;4852169;29;20060;-84
2023/06/02 11:00:36;;;;;;;0.10;0.10;;;20.60;99.90;;;;;;4844348;29;20133;-84
2023/06/02 11:03:04;;;;;;;0.00;0.00;;;20.50;1.00;;;;;;4843841;29;20081;-84
2023/06/02 11:05:31;;;;;;;0.00;0.00;;;20.40;99.90;;;;;;4827503;29;20057;-84
2023/06/02 11:08:15;;;;;;;0.20;0.20;;;20.30;1.00;;;;;;4843510;29;20128;-84
2023/06/02 11:10:45;;;;;;;0.10;0.10;;;20.40;99.90;;;;;;4826996;29;20062;-83
2023/06/02 11:13:16;;;;;;;0.05;0.05;;;20.60;99.90;;;;;;4832363;29;20382;-84
2023/06/02 11:16:02;;;;;;;0.10;0.10;;;20.90;99.90;;;;;;4844184;29;20420;-84
2023/06/02 11:18:33;;;;;;;0.08;0.08;;;21.10;99.90;;;;;;4844209;29;20057;-89
2023/06/02 11:21:16;;;;;;;0.30;0.20;;;21.30;66.90;;;;;;4845148;29;20057;-89
2023/06/02 11:23:42;;;;;;;0.13;0.10;;;21.40;3.00;;;;;;4861668;29;20064;-87
2023/06/02 11:26:11;;;;;;;0.30;0.30;;;21.20;1.00;;;;;;4830266;29;20049;-88
2023/06/02 11:28:37;;;;;;;0.03;0.03;;;21.00;99.90;;;;;;4830322;29;20057;-88
2023/06/02 11:31:09;;;;;;;0.25;0.10;;;21.10;1.00;;;;;;4861512;29;20524;-88
2023/06/02 11:33:37;;;;;;;0.08;0.08;;;21.20;99.90;;;;;;4845365;29;20045;-89
2023/06/02 11:36:08;;;;;;;0.20;0.10;;;21.40;99.90;;;;;;4861084;29;20054;-88
2023/06/02 11:38:34;;;;;;;0.30;0.30;;;21.40;99.90;;;;;;4845612;29;20086;-89
2023/06/02 11:41:14;;;;;;;0.10;0.10;;;21.40;99.90;;;;;;4843517;29;20524;-94
2023/06/02 11:43:50;;;;;;;0.15;0.10;;;21.30;99.90;;;;;;4844857;29;20049;-86
2023/06/02 11:46:18;;;;;;;0.30;0.20;;;21.40;99.90;;;;;;4843573;29;20062;-83
2023/06/02 11:48:44;;;;;;;0.10;0.10;;;21.60;99.90;;;;;;4844959;29;20057;-83
2023/06/02 11:51:12;;;;;;;0.08;0.08;;;21.70;99.90;;;;;;4861492;29;20053;-83
2023/06/02 11:53:44;;;;;;;0.22;0.22;;;21.80;99.90;;;;;;4861492;29;20050;-84
2023/06/02 11:56:14;;;;;;;0.15;0.15;;;21.90;99.90;;;;;;4844509;29;20057;-88
2023/06/02 11:58:45;;;;;;;0.00;0.00;;;21.90;99.90;;;;;;4829872;29;20057;-85
2023/06/02 12:01:14;;;;;;;0.20;0.20;;;22.00;99.90;;;;;;4861327;29;20046;-85
2023/06/02 12:04:04;;;;;;;0.10;0.10;;;22.10;99.90;;;;;;4861392;29;20054;-83
2023/06/02 12:06:46;;;;;;;0.15;0.15;;;22.30;99.90;;;;;;4860578;29;20050;-82
2023/06/02 12:09:14;;;;;;;0.30;0.20;;;22.40;99.90;;;;;;4843218;29;20061;-83
2023/06/02 12:11:40;;;;;;;0.32;0.30;;;22.50;99.90;;;;;;4844729;29;20062;-83
2023/06/02 12:14:07;;;;;;;0.20;0.10;;;22.40;99.90;;;;;;4842090;29;20144;-82
2023/06/02 12:16:35;;;;;;;0.10;0.10;;;22.50;99.90;;;;;;4857816;29;20053;-83
2023/06/02 12:19:19;;;;;;;0.08;0.08;;;22.60;99.90;;;;;;4843919;29;20416;-82
2023/06/02 12:21:46;;;;;;;0.15;0.10;;;22.70;99.90;;;;;;4860820;29;20041;-83
2023/06/02 12:24:37;;;;;;;0.10;0.10;;;22.80;99.90;;;;;;4842407;29;20132;-85
2023/06/02 12:27:04;;;;;;;0.17;0.17;;;22.90;99.90;;;;;;4844188;29;20053;-84
2023/06/02 12:29:30;;;;;;;0.20;0.20;;;22.90;99.90;;;;;;4859950;29;20057;-83
2023/06/02 12:31:56;;;;;;;;;;;22.80;99.90;;;;;;4859344;29;20049;-83
2023/06/02 12:34:22;;;;;;;0.20;0.20;;;22.50;99.90;;;;;;4844053;29;19980;-84
2023/06/02 12:36:48;;;;;;;1.40;0.40;;;22.30;99.90;;;;;;4860626;29;20053;-84
2023/06/02 12:39:14;;;;;;;0.43;0.32;;;22.30;99.90;;;;;;4860682;29;20046;-84
2023/06/02 12:41:39;;;;;;;0.73;0.63;;;22.30;99.90;;;;;;4859984;29;20136;-83
2023/06/02 12:44:05;;;;;;;0.10;0.10;;;22.50;99.90;;;;;;4842530;29;20057;-83
2023/06/02 12:46:31;;;;;;;0.20;0.20;;;22.70;99.90;;;;;;4859494;29;20527;-82
2023/06/02 12:49:00;;;;;;;0.13;0.13;;;22.40;99.90;;;;;;4859880;29;20060;-82
2023/06/02 12:51:25;;;;;;;0.10;0.10;;;22.00;99.90;;;;;;4860570;29;20049;-84
2023/06/02 12:53:53;;;;;;;0.20;0.20;;;21.80;99.90;;;;;;4860586;29;20053;-82
2023/06/02 12:56:18;;;;;;;0.70;0.10;;;21.90;99.90;;;;;;4859579;29;20054;-82
2023/06/02 12:58:44;;;;;;;0.20;0.20;;;22.10;99.90;;;;;;4859177;29;20518;-82
2023/06/02 13:01:10;;;;;;;0.10;0.10;;;22.50;99.90;;;;;;4859953;29;20467;-84
2023/06/02 13:03:36;;;;;;;0.13;0.13;;;22.60;99.90;;;;;;4833083;29;20046;-84